createdAt,value
2023-02-07T00:01:35.306Z,12.52
2023-02-07T00:04:01.903Z,11.55
2023-02-07T00:06:33.649Z,12.10
2023-02-07T00:09:01.975Z,11.87
2023-02-07T00:11:28.545Z,11.02
2023-02-07T00:13:59.226Z,12.43
2023-02-07T00:16:31.806Z,10.65
2023-02-07T00:19:00.404Z,11.57
2023-02-07T00:21:28.878Z,11.20
2023-02-07T00:24:07.692Z,12.57
2023-02-07T00:27:01.027Z,12.30
2023-02-07T00:29:29.591Z,12.13
2023-02-07T00:32:02.059Z,12.75
2023-02-07T00:34:28.660Z,11.43
2023-02-07T00:36:55.165Z,11.18
2023-02-07T00:39:26.556Z,11.73
2023-02-07T00:41:53.919Z,12.40
2023-02-07T00:44:20.318Z,12.18
2023-02-07T00:47:02.026Z,12.63
2023-02-07T00:49:31.525Z,11.55
2023-02-07T00:51:57.920Z,12.50
2023-02-07T00:54:24.783Z,11.65
2023-02-07T00:56:51.277Z,12.10
2023-02-07T00:59:17.799Z,11.10
2023-02-07T01:01:44.310Z,11.55
2023-02-07T01:04:10.845Z,10.85
2023-02-07T01:06:42.492Z,10.48
2023-02-07T01:09:14.258Z,11.48
2023-02-07T01:11:40.764Z,10.43
2023-02-07T01:14:12.348Z,11.25
2023-02-07T01:16:38.977Z,9.65
2023-02-07T01:19:18.550Z,9.40
2023-02-07T01:21:45.432Z,9.60
2023-02-07T01:24:13.120Z,8.80
2023-02-07T01:26:39.612Z,9.50
2023-02-07T01:29:10.567Z,9.40
2023-02-07T01:31:37.126Z,8.43
2023-02-07T01:34:13.190Z,8.98
2023-02-07T01:36:40.065Z,7.53
2023-02-07T01:39:06.538Z,7.50
2023-02-07T01:41:33.035Z,8.05
2023-02-07T01:44:03.051Z,6.50
2023-02-07T01:46:31.005Z,7.45
2023-02-07T01:49:14.660Z,8.07
2023-02-07T01:51:56.558Z,6.95
2023-02-07T01:54:23.771Z,7.55
2023-02-07T01:56:59.087Z,7.90
2023-02-07T01:59:26.736Z,7.65
2023-02-07T02:01:54.871Z,6.93
2023-02-07T02:04:24.538Z,6.80
2023-02-07T02:06:52.787Z,7.90
2023-02-07T02:09:19.666Z,8.20
2023-02-07T02:12:14.872Z,7.20
2023-02-07T02:15:00.282Z,6.57
2023-02-07T02:18:15.361Z,6.82
2023-02-07T02:21:11.998Z,7.40
2023-02-07T02:24:12.421Z,6.72
2023-02-07T02:26:55.520Z,7.28
2023-02-07T02:30:03.665Z,6.90
2023-02-07T02:33:15.844Z,7.35
2023-02-07T02:35:56.803Z,7.82
2023-02-07T02:38:34.813Z,6.78
2023-02-07T02:41:10.466Z,7.90
2023-02-07T02:43:59.661Z,7.80
2023-02-07T02:46:34.957Z,7.82
2023-02-07T02:49:03.292Z,7.97
2023-02-07T02:51:30.956Z,8.18
2023-02-07T02:53:59.311Z,9.20
2023-02-07T02:56:52.083Z,8.67
2023-02-07T02:59:46.389Z,7.57
2023-02-07T03:02:34.311Z,7.55
2023-02-07T03:05:13.820Z,7.70
2023-02-07T03:07:47.590Z,8.13
2023-02-07T03:10:32.333Z,7.53
2023-02-07T03:13:17.075Z,8.27
2023-02-07T03:16:18.922Z,7.85
2023-02-07T03:19:08.871Z,7.55
2023-02-07T03:21:50.706Z,7.05
2023-02-07T03:24:21.866Z,6.50
2023-02-07T03:26:53.314Z,6.72
2023-02-07T03:29:24.309Z,8.45
2023-02-07T03:31:57.989Z,7.97
2023-02-07T03:34:38.724Z,8.02
2023-02-07T03:37:42.263Z,7.43
2023-02-07T03:40:19.647Z,6.35
2023-02-07T03:43:10.856Z,6.40
2023-02-07T03:45:49.709Z,6.72
2023-02-07T03:48:27.260Z,7.85
2023-02-07T03:50:53.793Z,7.30
2023-02-07T03:53:21.717Z,6.65
2023-02-07T03:55:48.326Z,6.68
2023-02-07T03:58:26.026Z,6.45
2023-02-07T04:00:52.510Z,6.47
2023-02-07T04:03:19.070Z,5.80
2023-02-07T04:06:04.279Z,6.10
2023-02-07T04:08:32.216Z,6.63
2023-02-07T04:11:04.555Z,6.68
2023-02-07T04:13:31.129Z,6.22
2023-02-07T04:15:57.687Z,5.20
2023-02-07T04:18:41.655Z,4.88
2023-02-07T04:21:18.396Z,5.03
2023-02-07T04:23:44.913Z,4.50
2023-02-07T04:26:14.516Z,5.40
2023-02-07T04:28:59.351Z,5.57
2023-02-07T04:31:26.024Z,5.18
2023-02-07T04:33:53.717Z,4.70
2023-02-07T04:36:20.295Z,5.93
2023-02-07T04:38:46.794Z,5.32
2023-02-07T04:41:16.356Z,4.53
2023-02-07T04:43:51.069Z,5.10
2023-02-07T04:46:18.717Z,5.13
2023-02-07T04:48:48.384Z,5.78
2023-02-07T04:51:15.404Z,5.00
2023-02-07T04:53:41.897Z,4.77
2023-02-07T04:56:10.489Z,4.57
2023-02-07T04:58:39.038Z,4.75
2023-02-07T05:01:05.577Z,4.47
2023-02-07T05:03:32.107Z,5.20
2023-02-07T05:06:02.539Z,6.03
2023-02-07T05:08:31.175Z,4.82
2023-02-07T05:10:57.798Z,5.35
2023-02-07T05:13:29.431Z,5.07
2023-02-07T05:15:55.852Z,5.63
2023-02-07T05:18:22.800Z,4.63
2023-02-07T05:20:51.986Z,5.63
2023-02-07T05:23:18.819Z,5.13
2023-02-07T05:25:54.485Z,5.43
2023-02-07T05:28:21.402Z,5.38
2023-02-07T05:30:54.246Z,5.67
2023-02-07T05:33:20.776Z,5.97
2023-02-07T05:35:47.339Z,5.35
2023-02-07T05:38:16.382Z,4.65
2023-02-07T05:41:00.271Z,5.70
2023-02-07T05:43:53.621Z,5.17
2023-02-07T05:46:20.229Z,6.57
2023-02-07T05:48:47.881Z,5.18
2023-02-07T05:51:14.320Z,5.38
2023-02-07T05:53:57.078Z,5.78
2023-02-07T05:56:24.739Z,4.90
2023-02-07T05:59:02.535Z,5.53
2023-02-07T06:01:29.001Z,5.20
2023-02-07T06:03:55.551Z,5.50
2023-02-07T06:06:22.142Z,6.55
2023-02-07T06:08:49.680Z,5.87
2023-02-07T06:11:16.140Z,5.45
2023-02-07T06:13:42.680Z,5.65
2023-02-07T06:16:11.458Z,6.05
2023-02-07T06:18:38.737Z,6.45
2023-02-07T06:21:05.481Z,5.70
2023-02-07T06:23:51.873Z,7.53
2023-02-07T06:26:18.743Z,6.82
2023-02-07T06:28:45.220Z,7.30
2023-02-07T06:31:11.840Z,8.15
2023-02-07T06:33:38.353Z,6.13
2023-02-07T06:36:18.490Z,6.63
2023-02-07T06:38:45.073Z,6.05
2023-02-07T06:41:11.642Z,7.30
2023-02-07T06:43:46.317Z,6.82
2023-02-07T06:46:12.935Z,6.70
2023-02-07T06:48:44.637Z,7.20
2023-02-07T06:51:16.189Z,6.03
2023-02-07T06:53:42.615Z,7.30
2023-02-07T06:56:09.110Z,7.30
2023-02-07T06:58:35.606Z,6.70
2023-02-07T07:01:02.609Z,6.22
2023-02-07T07:03:29.485Z,6.93
2023-02-07T07:05:58.444Z,7.05
2023-02-07T07:08:25.509Z,7.22
2023-02-07T07:11:01.065Z,7.03
2023-02-07T07:13:27.615Z,6.68
2023-02-07T07:15:55.085Z,8.00
2023-02-07T07:18:21.743Z,7.00
2023-02-07T07:20:57.102Z,6.93
2023-02-07T07:23:26.559Z,6.40
2023-02-07T07:25:53.053Z,7.22
2023-02-07T07:28:19.561Z,7.80
2023-02-07T07:30:46.167Z,7.78
2023-02-07T07:33:12.775Z,7.80
2023-02-07T07:35:39.554Z,7.93
2023-02-07T07:38:06.226Z,8.00
2023-02-07T07:40:32.724Z,7.40
2023-02-07T07:43:13.303Z,8.27
2023-02-07T07:45:39.767Z,8.10
2023-02-07T07:48:06.290Z,8.00
2023-02-07T07:50:40.299Z,7.75
2023-02-07T07:53:07.007Z,10.32
2023-02-07T07:55:33.478Z,8.25
2023-02-07T07:57:59.859Z,9.07
2023-02-07T08:00:26.368Z,9.13
2023-02-07T08:03:03.485Z,7.93
2023-02-07T08:05:30.017Z,8.90
2023-02-07T08:08:09.778Z,9.25
2023-02-07T08:10:36.905Z,9.32
2023-02-07T08:13:04.356Z,8.47
2023-02-07T08:15:45.380Z,9.00
2023-02-07T08:18:11.833Z,8.75
2023-02-07T08:20:38.664Z,9.52
2023-02-07T08:23:10.657Z,9.20
2023-02-07T08:25:37.571Z,9.13
2023-02-07T08:28:14.650Z,9.45
2023-02-07T08:30:49.746Z,10.18
2023-02-07T08:33:21.342Z,9.10
2023-02-07T08:35:50.056Z,9.60
2023-02-07T08:38:16.616Z,9.10
2023-02-07T08:40:43.152Z,9.82
2023-02-07T08:43:12.538Z,9.77
2023-02-07T08:45:40.442Z,9.65
2023-02-07T08:48:07.388Z,9.70
2023-02-07T08:50:33.839Z,8.83
2023-02-07T08:53:00.488Z,9.82
2023-02-07T08:55:26.952Z,8.88
2023-02-07T08:57:53.525Z,9.90
2023-02-07T09:00:20.232Z,9.82
2023-02-07T09:02:46.814Z,10.13
2023-02-07T09:05:13.252Z,9.25
2023-02-07T09:07:39.746Z,10.10
2023-02-07T09:10:07.832Z,9.93
2023-02-07T09:12:35.065Z,9.20
2023-02-07T09:15:01.759Z,9.07
2023-02-07T09:17:28.666Z,9.65
2023-02-07T09:19:55.154Z,9.10
2023-02-07T09:22:21.750Z,8.27
2023-02-07T09:24:48.286Z,8.90
2023-02-07T09:27:14.810Z,8.07
2023-02-07T09:29:41.340Z,8.93
2023-02-07T09:32:07.835Z,8.52
2023-02-07T09:34:35.225Z,8.48
2023-02-07T09:37:06.780Z,7.90
2023-02-07T09:39:36.787Z,8.30
2023-02-07T09:42:41.733Z,8.25
2023-02-07T09:45:12.842Z,7.00
2023-02-07T09:47:43.592Z,7.53
2023-02-07T09:50:19.978Z,6.93
2023-02-07T09:52:56.131Z,7.37
2023-02-07T09:55:53.242Z,7.38
2023-02-07T09:58:41.990Z,6.90
2023-02-07T10:01:14.432Z,7.05
2023-02-07T10:03:55.587Z,6.75
2023-02-07T10:06:27.451Z,7.27
2023-02-07T10:08:55.585Z,6.22
2023-02-07T10:11:30.272Z,7.57
2023-02-07T10:14:32.533Z,6.97
2023-02-07T10:17:31.531Z,8.57
2023-02-07T10:20:22.720Z,8.37
2023-02-07T10:22:59.050Z,9.77
2023-02-07T10:25:41.635Z,9.90
2023-02-07T10:28:15.105Z,9.02
2023-02-07T10:30:50.147Z,8.63
2023-02-07T10:33:30.558Z,8.80
2023-02-07T10:35:57.243Z,7.28
2023-02-07T10:38:37.818Z,7.93
2023-02-07T10:41:26.754Z,7.53
2023-02-07T10:43:53.312Z,6.80
2023-02-07T10:46:22.491Z,6.73
2023-02-07T10:48:49.794Z,6.32
2023-02-07T10:51:26.631Z,6.50
2023-02-07T10:54:24.600Z,5.97
2023-02-07T10:57:02.133Z,6.07
2023-02-07T10:59:46.011Z,5.40
2023-02-07T11:02:33.519Z,5.70
2023-02-07T11:05:05.758Z,5.95
2023-02-07T11:07:46.088Z,6.50
2023-02-07T11:10:20.156Z,5.38
2023-02-07T11:12:55.272Z,4.50
2023-02-07T11:15:26.194Z,4.60
2023-02-07T11:17:56.746Z,3.78
2023-02-07T11:20:49.484Z,4.57
2023-02-07T11:23:15.945Z,4.22
2023-02-07T11:25:45.408Z,3.93
2023-02-07T11:28:22.731Z,3.65
2023-02-07T11:31:03.609Z,4.60
2023-02-07T11:33:34.186Z,4.00
2023-02-07T11:36:07.019Z,3.72
2023-02-07T11:38:40.869Z,3.67
2023-02-07T11:41:16.667Z,4.47
2023-02-07T11:43:53.491Z,4.57
2023-02-07T11:46:20.058Z,4.60
2023-02-07T11:48:49.696Z,4.68
2023-02-07T11:51:18.780Z,4.20
2023-02-07T11:53:49.834Z,5.40
2023-02-07T11:56:42.923Z,4.38
2023-02-07T11:59:18.247Z,4.07
2023-02-07T12:01:52.192Z,4.07
2023-02-07T12:04:21.605Z,3.30
2023-02-07T12:07:06.264Z,3.72
2023-02-07T12:09:40.282Z,4.10
2023-02-07T12:12:16.415Z,3.83
2023-02-07T12:14:51.463Z,4.18
2023-02-07T12:17:27.265Z,4.10
2023-02-07T12:20:21.511Z,3.97
2023-02-07T12:23:11.602Z,4.88
2023-02-07T12:25:52.494Z,4.43
2023-02-07T12:28:29.798Z,4.78
2023-02-07T12:31:01.710Z,4.53
2023-02-07T12:33:41.444Z,4.30
2023-02-07T12:36:27.106Z,4.45
2023-02-07T12:39:03.827Z,4.22
2023-02-07T12:41:42.267Z,5.00
2023-02-07T12:44:28.640Z,4.37
2023-02-07T12:47:27.491Z,4.18
2023-02-07T12:50:15.846Z,4.32
2023-02-07T12:52:58.962Z,3.95
2023-02-07T12:55:44.999Z,4.10
2023-02-07T12:58:49.023Z,4.03
2023-02-07T13:01:37.731Z,4.68
2023-02-07T13:04:45.777Z,5.10
2023-02-07T13:07:43.353Z,4.80
2023-02-07T13:10:21.750Z,5.03
2023-02-07T13:13:12.905Z,4.30
2023-02-07T13:15:52.740Z,4.38
2023-02-07T13:18:28.826Z,5.50
2023-02-07T13:21:26.929Z,4.28
2023-02-07T13:23:59.285Z,4.68
2023-02-07T13:26:27.704Z,4.90
2023-02-07T13:29:13.998Z,4.28
2023-02-07T13:31:47.259Z,4.60
2023-02-07T13:34:18.236Z,4.45
2023-02-07T13:36:49.465Z,5.57
2023-02-07T13:39:48.170Z,4.53
2023-02-07T13:42:33.632Z,4.57
2023-02-07T13:45:11.095Z,4.55
2023-02-07T13:47:59.503Z,4.60
2023-02-07T13:50:47.947Z,4.43
2023-02-07T13:53:36.126Z,4.40
2023-02-07T13:56:08.344Z,4.50
2023-02-07T13:58:53.539Z,4.57
2023-02-07T14:01:26.354Z,4.00
2023-02-07T14:04:06.450Z,4.10
2023-02-07T14:06:45.809Z,3.83
2023-02-07T14:09:17.483Z,3.88
2023-02-07T14:11:50.017Z,4.45
2023-02-07T14:14:37.865Z,4.50
2023-02-07T14:17:14.984Z,3.83
2023-02-07T14:19:41.529Z,3.97
2023-02-07T14:22:19.084Z,3.92
2023-02-07T14:25:05.487Z,3.85
2023-02-07T14:27:33.091Z,3.80
2023-02-07T14:30:11.754Z,4.15
2023-02-07T14:33:06.402Z,3.63
2023-02-07T14:35:38.762Z,3.65
2023-02-07T14:38:05.270Z,3.53
2023-02-07T14:41:01.905Z,3.17
2023-02-07T14:44:07.418Z,4.18
2023-02-07T14:46:39.268Z,3.10
2023-02-07T14:49:05.675Z,3.22
2023-02-07T14:51:50.933Z,3.15
2023-02-07T14:54:22.368Z,3.05
2023-02-07T14:57:04.138Z,3.03
2023-02-07T14:59:36.688Z,3.50
2023-02-07T15:02:28.044Z,3.10
2023-02-07T15:04:54.614Z,3.42
2023-02-07T15:07:21.094Z,3.53
2023-02-07T15:09:47.935Z,3.40
2023-02-07T15:12:27.287Z,2.70
2023-02-07T15:14:57.103Z,3.05
2023-02-07T15:17:33.451Z,3.42
2023-02-07T15:20:02.750Z,3.20
2023-02-07T15:22:29.871Z,3.78
2023-02-07T15:24:58.780Z,3.37
2023-02-07T15:27:30.499Z,3.08
2023-02-07T15:30:02.416Z,3.03
2023-02-07T15:32:31.409Z,3.22
2023-02-07T15:34:59.366Z,3.58
2023-02-07T15:37:27.701Z,2.80
2023-02-07T15:39:57.245Z,3.20
2023-02-07T15:42:24.165Z,2.97
2023-02-07T15:44:56.992Z,3.33
2023-02-07T15:47:29.565Z,3.63
2023-02-07T15:50:01.412Z,2.90
2023-02-07T15:52:44.581Z,2.80
2023-02-07T15:55:21.690Z,3.17
2023-02-07T15:57:48.823Z,3.65
2023-02-07T16:00:21.846Z,3.42
2023-02-07T16:03:20.319Z,3.97
2023-02-07T16:05:47.322Z,3.45
2023-02-07T16:08:37.968Z,3.58
2023-02-07T16:11:30.822Z,3.60
2023-02-07T16:14:21.759Z,3.55
2023-02-07T16:16:56.998Z,4.20
2023-02-07T16:19:31.328Z,3.80
2023-02-07T16:22:04.651Z,4.40
2023-02-07T16:24:49.544Z,3.67
2023-02-07T16:27:19.973Z,4.53
2023-02-07T16:29:47.378Z,3.67
2023-02-07T16:32:14.506Z,4.43
2023-02-07T16:34:58.549Z,4.72
2023-02-07T16:37:27.551Z,4.35
2023-02-07T16:39:54.216Z,4.20
2023-02-07T16:42:20.833Z,4.63
2023-02-07T16:44:47.724Z,4.20
2023-02-07T16:47:14.747Z,4.95
2023-02-07T16:49:51.621Z,5.18
2023-02-07T16:52:18.064Z,5.25
2023-02-07T16:54:47.091Z,5.27
2023-02-07T16:57:14.263Z,5.13
2023-02-07T16:59:41.035Z,4.90
2023-02-07T17:02:15.469Z,5.22
2023-02-07T17:04:44.500Z,5.25
2023-02-07T17:07:14.652Z,5.10
2023-02-07T17:09:43.341Z,5.22
2023-02-07T17:12:18.471Z,5.32
2023-02-07T17:15:08.473Z,5.00
2023-02-07T17:18:17.845Z,6.28
2023-02-07T17:20:44.525Z,4.57
2023-02-07T17:23:11.086Z,5.18
2023-02-07T17:25:37.639Z,5.55
2023-02-07T17:28:04.442Z,5.45
2023-02-07T17:30:41.634Z,6.05
2023-02-07T17:33:09.962Z,6.10
2023-02-07T17:35:36.788Z,6.22
2023-02-07T17:38:03.899Z,6.88
2023-02-07T17:40:41.663Z,7.22
2023-02-07T17:43:08.983Z,6.65
2023-02-07T17:45:37.073Z,5.67
2023-02-07T17:48:04.591Z,6.78
2023-02-07T17:50:34.336Z,6.72
2023-02-07T17:53:04.299Z,5.88
2023-02-07T17:55:32.256Z,5.70
2023-02-07T17:57:59.587Z,5.93
2023-02-07T18:00:33.208Z,6.60
2023-02-07T18:02:59.672Z,6.72
2023-02-07T18:05:26.304Z,6.60
2023-02-07T18:07:52.756Z,6.80
2023-02-07T18:10:21.133Z,6.90
2023-02-07T18:12:47.791Z,6.32
2023-02-07T18:15:14.593Z,6.43
2023-02-07T18:17:47.048Z,6.13
2023-02-07T18:20:17.356Z,5.63
2023-02-07T18:22:43.747Z,6.20
2023-02-07T18:25:10.334Z,6.63
2023-02-07T18:27:37.823Z,6.18
2023-02-07T18:30:05.870Z,6.63
2023-02-07T18:32:32.518Z,9.40
2023-02-07T18:34:58.971Z,8.93
2023-02-07T18:37:26.345Z,9.15
2023-02-07T18:39:52.791Z,9.95
2023-02-07T18:42:20.647Z,10.18
2023-02-07T18:44:47.256Z,10.23
2023-02-07T18:47:13.616Z,9.30
2023-02-07T18:49:39.966Z,8.68
2023-02-07T18:52:06.924Z,8.10
2023-02-07T18:54:33.423Z,8.52
2023-02-07T18:56:59.807Z,9.68
2023-02-07T18:59:26.191Z,8.87
2023-02-07T19:01:53.666Z,7.28
2023-02-07T19:04:21.594Z,8.73
2023-02-07T19:06:52.135Z,10.25
2023-02-07T19:09:20.943Z,9.93
2023-02-07T19:11:50.493Z,8.87
2023-02-07T19:14:19.617Z,9.48
2023-02-07T19:16:46.764Z,9.88
2023-02-07T19:19:14.365Z,9.77
2023-02-07T19:21:41.230Z,9.60
2023-02-07T19:24:11.948Z,10.10
2023-02-07T19:26:39.330Z,9.52
2023-02-07T19:29:06.100Z,10.00
2023-02-07T19:31:32.922Z,11.00
2023-02-07T19:33:59.975Z,10.43
2023-02-07T19:36:27.467Z,10.23
2023-02-07T19:38:54.382Z,10.02
2023-02-07T19:41:25.389Z,9.40
2023-02-07T19:43:52.287Z,10.07
2023-02-07T19:46:19.801Z,10.10
2023-02-07T19:48:47.230Z,10.30
2023-02-07T19:51:19.953Z,11.75
2023-02-07T19:53:49.944Z,10.40
2023-02-07T19:56:17.338Z,9.57
2023-02-07T19:58:46.728Z,10.20
2023-02-07T20:01:14.183Z,10.60
2023-02-07T20:03:41.289Z,10.73
2023-02-07T20:06:12.308Z,10.45
2023-02-07T20:08:40.160Z,11.30
2023-02-07T20:11:09.067Z,10.93
2023-02-07T20:13:37.254Z,9.83
2023-02-07T20:16:06.270Z,9.50
2023-02-07T20:18:33.512Z,9.32
2023-02-07T20:21:11.285Z,9.10
2023-02-07T20:23:39.975Z,9.68
2023-02-07T20:26:12.199Z,10.07
2023-02-07T20:28:38.895Z,10.75
2023-02-07T20:31:09.879Z,11.18
2023-02-07T20:33:37.494Z,10.73
2023-02-07T20:36:04.759Z,10.10
2023-02-07T20:38:31.379Z,11.23
2023-02-07T20:41:10.096Z,10.77
2023-02-07T20:43:37.247Z,13.63
2023-02-07T20:46:10.651Z,11.82
2023-02-07T20:48:37.091Z,12.55
2023-02-07T20:51:09.890Z,12.10
2023-02-07T20:53:38.338Z,12.18
2023-02-07T20:56:10.640Z,11.18
2023-02-07T20:58:37.389Z,12.05
2023-02-07T21:01:12.605Z,11.95
2023-02-07T21:03:40.430Z,10.27
2023-02-07T21:06:07.789Z,10.30
2023-02-07T21:08:34.966Z,10.77
2023-02-07T21:11:02.107Z,9.23
2023-02-07T21:13:29.025Z,10.02
2023-02-07T21:16:03.050Z,9.60
2023-02-07T21:18:31.110Z,9.85
2023-02-07T21:20:57.981Z,10.88
2023-02-07T21:23:24.655Z,11.50
2023-02-07T21:25:53.891Z,12.98
2023-02-07T21:28:23.240Z,13.27
2023-02-07T21:30:49.707Z,13.30
2023-02-07T21:33:27.467Z,14.25
2023-02-07T21:36:15.396Z,11.73
2023-02-07T21:38:56.494Z,12.70
2023-02-07T21:41:25.732Z,12.27
2023-02-07T21:43:54.545Z,11.20
2023-02-07T21:46:23.854Z,11.75
2023-02-07T21:48:53.179Z,10.00
2023-02-07T21:51:22.356Z,10.50
2023-02-07T21:53:50.274Z,9.90
2023-02-07T21:56:25.056Z,9.48
2023-02-07T21:59:00.919Z,10.88
2023-02-07T22:01:39.352Z,10.32
2023-02-07T22:04:16.306Z,11.10
2023-02-07T22:06:57.120Z,10.73
2023-02-07T22:09:23.557Z,9.75
2023-02-07T22:11:50.391Z,11.98
2023-02-07T22:14:17.326Z,11.70
2023-02-07T22:17:13.937Z,11.65
2023-02-07T22:19:40.395Z,11.00
2023-02-07T22:22:07.704Z,11.55
2023-02-07T22:24:38.220Z,11.00
2023-02-07T22:27:04.598Z,10.50
2023-02-07T22:29:31.029Z,11.60
2023-02-07T22:32:26.280Z,11.00
2023-02-07T22:34:53.346Z,10.75
2023-02-07T22:37:20.864Z,10.70
2023-02-07T22:39:49.830Z,9.90
2023-02-07T22:42:16.241Z,9.95
2023-02-07T22:44:46.693Z,9.30
2023-02-07T22:47:13.147Z,9.40
2023-02-07T22:49:41.146Z,9.88
2023-02-07T22:52:07.551Z,9.40
2023-02-07T22:54:45.108Z,10.02
2023-02-07T22:57:13.312Z,9.73
2023-02-07T22:59:39.880Z,9.25
2023-02-07T23:02:08.450Z,10.27
2023-02-07T23:04:45.987Z,9.38
2023-02-07T23:07:13.538Z,9.40
2023-02-07T23:09:40.357Z,12.97
2023-02-07T23:12:13.008Z,13.75
2023-02-07T23:15:03.252Z,13.25
2023-02-07T23:17:29.662Z,11.93
2023-02-07T23:19:56.300Z,11.13
2023-02-07T23:22:22.734Z,8.83
2023-02-07T23:24:49.309Z,10.35
2023-02-07T23:27:24.094Z,10.80
2023-02-07T23:29:51.280Z,8.82
2023-02-07T23:32:19.852Z,9.55
2023-02-07T23:34:46.789Z,9.13
2023-02-07T23:37:13.344Z,7.93
2023-02-07T23:39:40.005Z,9.90
2023-02-07T23:42:10.371Z,9.02
2023-02-07T23:47:35.957Z,9.17
2023-02-07T23:50:15.412Z,10.82
2023-02-07T23:52:41.874Z,10.02
2023-02-07T23:55:08.313Z,10.20
2023-02-07T23:57:34.821Z,9.05
